Elon, NC

00:23 EDT le 20 octobre 2014 (GMT -0400)
Burlington-Alamance Regional | Change Station
CLOSE
Current Station
Aéroport
Location: Burlington,
Altitude: 617 ft
Stations météo à proximité

Alt. 617 ft 36.05 °N, 79.47 °W | Updated 1 hour ago

Ciel dégagé
Ciel dégagé
44 ° F
Paraît 44 ° F
N
0
Vent Variable Vent de Nord

Aujourd'hui
Haut(e) -- | Bas -- ° F
--% Risque de précip.
Hier
Haut(e) -- | Bas -- ° F
Precip. -- pouce
7:29 AM 6:35 PM
Lune descendante, 13% visible
Pression 30.14 pouce
Visibilité 10.0 Miles terrestres
Nuages Ciel dégagé
Point de rosée 40 ° F
Humidité 85%
Précipitations 0.00 pouce
Profondeur de la couche neigeuse Non disponible.
UV 0 sur 12
Pollen 2.70 sur 12
Ozone Bon
PM2.5 Bon
Flu Activity Sporadic
METAR KBUY 200254Z AUTO 00000KT 10SM CLR 07/04 A3014 RMK AO2 SLP205 T00670044 52013

More Conditions Fewer Conditions

Pression 30.14 pouce
Visibilité 10.0 Miles terrestres
Nuages Ciel dégagé
Point de rosée 40 ° F
Humidité 85%
Précipitations 0.00 pouce
Profondeur de la couche neigeuse Non disponible.
UV 0 sur 12
Pollen 2.70 sur 12
Ozone Bon
PM2.5 Bon
Flu Activity Sporadic
METAR KBUY 200254Z AUTO 00000KT 10SM CLR 07/04 A3014 RMK AO2 SLP205 T00670044 52013

More Conditions Fewer Conditions

10-Day Weather Forecast

Almanac

Astronomie

Oct. 20, 2014 Lever Coucher
Temps réel 07:29 EDT 18:35 EDT
Crépuscule civil 07:03 EDT 19:01 EDT
Crépuscule nautique 06:33 EDT 19:31 EDT
Crépuscule astronomique 06:03 EDT 20:01 EDT
Lune 04:21 EDT 16:52 EDT
Durée de lumière visible 11h 58m
Longueur du jour
11h 06m
Lune descendante, 13% of the Moon is Illuminated
Aujourd'hui
Lune descendante
Oct 23
Nouveau
Oct 30
Premier quartier
Nov 6
Pleine lune
Nov 14
Dernier quartier

Extrêmes aujourd'hui

State Highs State Lows

Community

WunderPhotos

Upload Photos

1,763,294 Photos téléchargées !

Nearby

Qualité de l'air

  Qualité de l'air Indice de la qualité de l'air Polluant
Hier Bon
OZONE
Hier Bon
PM2.5
Actuel Bon
PM2.5
Actuel Bon
OZONE
dimanche Bon
OZONE
dimanche Bon
PM2.5
lundi Bon
OZONE
lundi Bon
PM2.5
mardi Bon
OZONE
mardi Bon
PM2.5
mercredi Bon
OZONE
mercredi Bon
PM2.5

Épaisseur de neige

Station Depth Altitude
Pas de nouvelles chutes de neige

Activité sismique

Ville Distance Mag. Time & Date
No recent earthquake activity has been reported nearby.
Minimum magnitude displayed is 2.5.

Températures des eaux côtières

Lieu Température
Aucun rapport de station

Stations météo à proximité